createdAt,value
2022-12-14T00:01:35.575Z,10.10
2022-12-14T00:04:02.330Z,10.93
2022-12-14T00:06:31.041Z,9.65
2022-12-14T00:09:00.873Z,10.15
2022-12-14T00:11:28.668Z,9.93
2022-12-14T00:14:00.373Z,9.95
2022-12-14T00:16:29.994Z,9.75
2022-12-14T00:19:00.392Z,11.65
2022-12-14T00:21:28.417Z,8.75
2022-12-14T00:23:59.240Z,8.50
2022-12-14T00:26:28.915Z,8.60
2022-12-14T00:28:56.393Z,9.13
2022-12-14T00:31:24.291Z,8.57
2022-12-14T00:33:52.004Z,8.27
2022-12-14T00:36:19.193Z,10.70
2022-12-14T00:38:46.053Z,9.13
2022-12-14T00:41:13.096Z,8.85
2022-12-14T00:43:40.925Z,9.27
2022-12-14T00:46:08.193Z,8.75
2022-12-14T00:48:35.088Z,9.10
2022-12-14T00:51:02.327Z,7.80
2022-12-14T00:53:29.159Z,8.60
2022-12-14T00:55:55.901Z,7.43
2022-12-14T00:58:24.856Z,8.20
2022-12-14T01:01:03.315Z,7.88
2022-12-14T01:03:30.858Z,7.13
2022-12-14T01:05:58.265Z,8.13
2022-12-14T01:08:25.604Z,8.32
2022-12-14T01:10:53.114Z,7.03
2022-12-14T01:13:19.946Z,6.68
2022-12-14T01:15:46.888Z,7.63
2022-12-14T01:18:14.313Z,6.82
2022-12-14T01:20:41.077Z,7.50
2022-12-14T01:23:07.906Z,9.00
2022-12-14T01:25:34.698Z,7.32
2022-12-14T01:28:01.640Z,6.97
2022-12-14T01:30:28.588Z,7.75
2022-12-14T01:32:55.362Z,7.78
2022-12-14T01:35:22.135Z,7.05
2022-12-14T01:37:49.288Z,7.40
2022-12-14T01:40:16.311Z,6.80
2022-12-14T01:42:43.085Z,7.63
2022-12-14T01:45:22.071Z,7.15
2022-12-14T01:47:55.228Z,8.82
2022-12-14T01:50:43.067Z,8.07
2022-12-14T01:53:14.817Z,7.57
2022-12-14T01:55:50.448Z,6.78
2022-12-14T01:58:22.944Z,7.65
2022-12-14T02:00:54.965Z,7.82
2022-12-14T02:03:36.077Z,7.40
2022-12-14T02:06:11.423Z,7.90
2022-12-14T02:08:41.161Z,7.65
2022-12-14T02:11:07.974Z,7.85
2022-12-14T02:13:38.859Z,8.25
2022-12-14T02:16:07.396Z,7.47
2022-12-14T02:18:34.392Z,6.75
2022-12-14T02:21:25.089Z,7.43
2022-12-14T02:24:06.932Z,7.25
2022-12-14T02:27:04.771Z,7.32
2022-12-14T02:29:34.461Z,7.25
2022-12-14T02:32:16.034Z,6.85
2022-12-14T02:34:57.875Z,7.95
2022-12-14T02:37:41.291Z,7.55
2022-12-14T02:40:41.519Z,7.50
2022-12-14T02:43:18.971Z,7.43
2022-12-14T02:46:24.177Z,6.90
2022-12-14T02:49:26.177Z,7.45
2022-12-14T02:51:57.988Z,7.07
2022-12-14T02:54:38.380Z,7.20
2022-12-14T02:57:35.342Z,7.35
2022-12-14T03:00:04.445Z,7.82
2022-12-14T03:02:35.187Z,6.82
2022-12-14T03:05:02.872Z,8.20
2022-12-14T03:07:30.463Z,7.35
2022-12-14T03:10:04.025Z,6.25
2022-12-14T03:12:32.199Z,6.93
2022-12-14T03:15:00.967Z,6.90
2022-12-14T03:17:32.550Z,6.95
2022-12-14T03:20:12.420Z,6.75
2022-12-14T03:22:53.499Z,7.97
2022-12-14T03:25:28.654Z,6.85
2022-12-14T03:28:05.930Z,6.65
2022-12-14T03:30:59.493Z,5.85
2022-12-14T03:33:27.560Z,6.15
2022-12-14T03:36:11.784Z,7.25
2022-12-14T03:38:43.895Z,11.00
2022-12-14T03:41:20.249Z,7.57
2022-12-14T03:46:27.438Z,7.65
2022-12-14T03:49:04.185Z,7.35
2022-12-14T03:51:37.760Z,7.47
2022-12-14T03:54:19.722Z,7.07
2022-12-14T03:57:31.557Z,7.55
2022-12-14T04:00:07.234Z,6.95
2022-12-14T04:03:08.602Z,8.02
2022-12-14T04:05:48.575Z,7.32
2022-12-14T04:08:42.374Z,6.57
2022-12-14T04:11:31.624Z,6.72
2022-12-14T04:14:41.023Z,7.13
2022-12-14T04:17:49.025Z,7.22
2022-12-14T04:21:03.462Z,7.60
2022-12-14T04:23:53.890Z,7.55
2022-12-14T04:26:26.224Z,7.50
2022-12-14T04:29:17.458Z,8.60
2022-12-14T04:31:51.467Z,6.93
2022-12-14T04:34:22.591Z,7.47
2022-12-14T04:36:55.987Z,7.05
2022-12-14T04:39:29.993Z,6.68
2022-12-14T04:42:00.437Z,6.20
2022-12-14T04:44:35.424Z,7.93
2022-12-14T04:47:05.890Z,7.68
2022-12-14T04:49:44.669Z,6.30
2022-12-14T04:52:22.805Z,8.43
2022-12-14T04:54:56.595Z,7.65
2022-12-14T04:57:31.580Z,6.22
2022-12-14T05:00:00.870Z,6.60
2022-12-14T05:02:39.051Z,7.07
2022-12-14T05:05:16.515Z,7.53
2022-12-14T05:08:07.357Z,8.30
2022-12-14T05:10:51.895Z,7.57
2022-12-14T05:13:42.337Z,7.82
2022-12-14T05:16:20.747Z,8.73
2022-12-14T05:18:47.615Z,6.43
2022-12-14T05:21:33.111Z,6.65
2022-12-14T05:24:02.264Z,6.35
2022-12-14T05:26:30.578Z,7.20
2022-12-14T05:28:57.407Z,7.57
2022-12-14T05:31:25.220Z,7.22
2022-12-14T05:33:52.024Z,7.22
2022-12-14T05:36:19.607Z,6.95
2022-12-14T05:38:46.721Z,7.57
2022-12-14T05:41:14.093Z,7.45
2022-12-14T05:43:41.453Z,8.02
2022-12-14T05:46:09.818Z,8.48
2022-12-14T05:48:36.668Z,8.13
2022-12-14T05:51:12.166Z,8.05
2022-12-14T05:53:40.141Z,7.38
2022-12-14T05:56:08.428Z,7.68
2022-12-14T05:58:36.149Z,7.20
2022-12-14T06:01:05.814Z,6.88
2022-12-14T06:03:32.930Z,7.18
2022-12-14T06:06:11.084Z,7.45
2022-12-14T06:08:39.583Z,6.63
2022-12-14T06:11:12.451Z,6.60
2022-12-14T06:13:40.670Z,6.32
2022-12-14T06:16:20.154Z,7.88
2022-12-14T06:18:55.056Z,7.45
2022-12-14T06:21:25.606Z,6.90
2022-12-14T06:23:52.556Z,7.70
2022-12-14T06:26:19.496Z,8.35
2022-12-14T06:28:46.440Z,7.13
2022-12-14T06:31:35.103Z,8.23
2022-12-14T06:34:03.012Z,8.02
2022-12-14T06:36:33.857Z,8.48
2022-12-14T06:39:03.559Z,8.93
2022-12-14T06:41:30.466Z,8.05
2022-12-14T06:43:57.628Z,7.60
2022-12-14T06:46:25.022Z,7.97
2022-12-14T06:48:54.814Z,8.45
2022-12-14T06:51:22.736Z,7.60
2022-12-14T06:53:53.821Z,7.97
2022-12-14T06:56:22.172Z,9.05
2022-12-14T06:58:49.305Z,8.60
2022-12-14T07:01:18.924Z,11.50
2022-12-14T07:03:51.031Z,8.65
2022-12-14T07:06:18.074Z,9.00
2022-12-14T07:08:45.222Z,8.15
2022-12-14T07:11:14.657Z,8.18
2022-12-14T07:13:42.628Z,8.60
2022-12-14T07:16:16.380Z,9.05
2022-12-14T07:18:43.450Z,9.05
2022-12-14T07:21:13.018Z,8.57
2022-12-14T07:23:41.488Z,7.97
2022-12-14T07:26:13.855Z,7.65
2022-12-14T07:28:42.347Z,8.18
2022-12-14T07:31:23.688Z,8.88
2022-12-14T07:33:53.380Z,8.15
2022-12-14T07:36:22.204Z,9.55
2022-12-14T07:38:50.735Z,9.43
2022-12-14T07:41:23.396Z,8.43
2022-12-14T07:43:51.661Z,8.38
2022-12-14T07:46:21.413Z,8.15
2022-12-14T07:48:50.632Z,8.75
2022-12-14T07:51:20.641Z,8.45
2022-12-14T07:53:48.313Z,7.78
2022-12-14T07:56:17.725Z,8.32
2022-12-14T07:58:44.927Z,8.85
2022-12-14T08:01:13.557Z,7.85
2022-12-14T08:03:45.552Z,8.43
2022-12-14T08:06:13.665Z,8.52
2022-12-14T08:08:41.068Z,8.30
2022-12-14T08:11:08.829Z,8.27
2022-12-14T08:13:36.105Z,8.23
2022-12-14T08:16:10.675Z,8.05
2022-12-14T08:18:37.943Z,7.70
2022-12-14T08:21:06.652Z,9.05
2022-12-14T08:23:34.273Z,8.23
2022-12-14T08:26:02.175Z,8.43
2022-12-14T08:28:30.655Z,9.10
2022-12-14T08:31:02.835Z,8.48
2022-12-14T08:33:30.091Z,8.27
2022-12-14T08:35:57.014Z,8.73
2022-12-14T08:38:23.798Z,8.15
2022-12-14T08:40:50.565Z,9.43
2022-12-14T08:43:23.243Z,9.05
2022-12-14T08:45:54.872Z,9.10
2022-12-14T08:48:22.678Z,8.65
2022-12-14T08:51:02.681Z,9.55
2022-12-14T08:53:30.023Z,8.32
2022-12-14T08:55:57.444Z,8.80
2022-12-14T08:58:24.529Z,9.75
2022-12-14T09:00:59.204Z,8.93
2022-12-14T09:03:26.309Z,8.88
2022-12-14T09:05:54.121Z,8.93
2022-12-14T09:08:21.960Z,9.68
2022-12-14T09:10:51.200Z,9.68
2022-12-14T09:13:19.326Z,9.00
2022-12-14T09:15:46.166Z,9.02
2022-12-14T09:18:12.918Z,8.85
2022-12-14T09:20:39.854Z,9.10
2022-12-14T09:23:06.756Z,8.73
2022-12-14T09:25:33.536Z,8.98
2022-12-14T09:28:00.308Z,8.98
2022-12-14T09:30:27.350Z,9.30
2022-12-14T09:32:54.184Z,9.75
2022-12-14T09:35:20.968Z,9.35
2022-12-14T09:37:47.844Z,9.13
2022-12-14T09:40:14.769Z,9.07
2022-12-14T09:42:58.030Z,9.07
2022-12-14T09:45:34.148Z,8.65
2022-12-14T09:48:08.508Z,9.20
2022-12-14T09:50:35.939Z,9.73
2022-12-14T09:53:07.297Z,8.60
2022-12-14T09:55:44.436Z,8.93
2022-12-14T09:58:25.038Z,8.23
2022-12-14T10:01:22.236Z,8.18
2022-12-14T10:04:12.819Z,7.93
2022-12-14T10:06:53.545Z,9.52
2022-12-14T10:09:43.598Z,9.10
2022-12-14T10:12:41.770Z,8.93
2022-12-14T10:15:08.912Z,8.05
2022-12-14T10:17:53.798Z,8.57
2022-12-14T10:20:33.241Z,10.30
2022-12-14T10:23:02.039Z,8.27
2022-12-14T10:25:31.652Z,8.40
2022-12-14T10:28:13.826Z,7.95
2022-12-14T10:30:42.692Z,8.73
2022-12-14T10:33:30.432Z,7.85
2022-12-14T10:36:25.067Z,7.75
2022-12-14T10:39:02.031Z,8.40
2022-12-14T10:42:02.907Z,8.57
2022-12-14T10:45:23.499Z,8.18
2022-12-14T10:47:54.381Z,7.93
2022-12-14T10:50:27.906Z,7.95
2022-12-14T10:52:56.109Z,15.23
2022-12-14T10:55:25.758Z,8.30
2022-12-14T10:57:52.545Z,8.75
2022-12-14T11:00:23.395Z,8.98
2022-12-14T11:02:56.181Z,9.55
2022-12-14T11:05:29.801Z,8.75
2022-12-14T11:10:29.451Z,7.90
2022-12-14T11:13:02.740Z,7.90
2022-12-14T11:15:38.419Z,7.72
2022-12-14T11:18:27.739Z,7.95
2022-12-14T11:20:56.351Z,7.70
2022-12-14T11:23:36.312Z,8.13
2022-12-14T11:26:17.590Z,8.00
2022-12-14T11:28:50.474Z,7.40
2022-12-14T11:31:20.619Z,8.10
2022-12-14T11:33:52.970Z,9.13
2022-12-14T11:36:36.278Z,7.47
2022-12-14T11:39:13.785Z,7.75
2022-12-14T11:41:46.782Z,7.60
2022-12-14T11:44:16.314Z,7.68
2022-12-14T11:47:00.857Z,7.68
2022-12-14T11:49:44.094Z,7.72
2022-12-14T11:52:19.778Z,7.55
2022-12-14T11:55:12.047Z,7.53
2022-12-14T11:57:53.698Z,7.32
2022-12-14T12:00:20.497Z,7.75
2022-12-14T12:02:54.174Z,7.78
2022-12-14T12:05:23.600Z,8.57
2022-12-14T12:07:50.376Z,7.60
2022-12-14T12:10:27.453Z,8.27
2022-12-14T12:12:59.635Z,7.25
2022-12-14T12:15:50.200Z,7.78
2022-12-14T12:18:22.871Z,8.23
2022-12-14T12:21:10.102Z,7.60
2022-12-14T12:23:42.867Z,7.90
2022-12-14T12:26:21.892Z,8.57
2022-12-14T12:28:55.698Z,7.90
2022-12-14T12:31:31.291Z,8.60
2022-12-14T12:34:03.699Z,7.95
2022-12-14T12:36:32.723Z,8.32
2022-12-14T12:39:12.725Z,8.10
2022-12-14T12:41:51.357Z,8.35
2022-12-14T12:44:49.940Z,8.10
2022-12-14T12:47:46.541Z,9.05
2022-12-14T12:50:16.897Z,8.18
2022-12-14T12:53:12.017Z,8.48
2022-12-14T12:55:47.530Z,8.23
2022-12-14T12:58:24.958Z,8.13
2022-12-14T13:00:55.744Z,8.27
2022-12-14T13:03:45.745Z,8.23
2022-12-14T13:06:27.593Z,7.90
2022-12-14T13:09:01.138Z,9.55
2022-12-14T13:11:35.102Z,9.80
2022-12-14T13:14:19.918Z,8.77
2022-12-14T13:16:47.481Z,9.38
2022-12-14T13:19:55.902Z,9.65
2022-12-14T13:22:31.616Z,8.88
2022-12-14T13:25:21.228Z,9.87
2022-12-14T13:27:51.091Z,8.38
2022-12-14T13:30:45.085Z,8.60
2022-12-14T13:33:29.039Z,9.50
2022-12-14T13:36:22.641Z,9.00
2022-12-14T13:39:22.439Z,9.10
2022-12-14T13:42:01.107Z,9.60
2022-12-14T13:44:46.585Z,8.90
2022-12-14T13:47:22.084Z,8.93
2022-12-14T13:50:26.892Z,9.30
2022-12-14T13:52:44.587Z,9.02
2022-12-14T13:55:26.596Z,9.80
2022-12-14T13:58:05.531Z,9.55
2022-12-14T14:00:45.538Z,9.60
2022-12-14T14:03:35.542Z,9.68
2022-12-14T14:06:12.839Z,9.75
2022-12-14T14:08:45.966Z,8.95
2022-12-14T14:14:17.664Z,9.27
2022-12-14T14:16:50.431Z,8.95
2022-12-14T14:19:26.873Z,9.48
2022-12-14T14:22:26.671Z,10.00
2022-12-14T14:25:00.821Z,10.20
2022-12-14T14:27:41.974Z,10.00
2022-12-14T14:30:32.877Z,8.88
2022-12-14T14:33:35.918Z,9.80
2022-12-14T14:35:49.666Z,10.98
2022-12-14T14:38:31.931Z,10.55
2022-12-14T14:41:18.612Z,10.10
2022-12-14T14:46:34.361Z,10.10
2022-12-14T14:49:01.366Z,9.95
2022-12-14T14:51:32.549Z,9.88
2022-12-14T14:54:44.743Z,10.15
2022-12-14T14:57:35.416Z,9.43
2022-12-14T15:00:04.545Z,10.00
2022-12-14T15:02:41.245Z,10.00
2022-12-14T15:05:41.487Z,10.15
2022-12-14T15:08:05.174Z,10.90
2022-12-14T15:10:41.338Z,10.77
2022-12-14T15:13:28.195Z,10.82
2022-12-14T15:15:56.523Z,10.80
2022-12-14T15:18:28.570Z,10.85
2022-12-14T15:20:58.361Z,10.80
2022-12-14T15:23:27.001Z,11.55
2022-12-14T15:26:01.542Z,12.07
2022-12-14T15:28:29.271Z,11.77
2022-12-14T15:31:00.139Z,11.15
2022-12-14T15:33:33.345Z,11.55
2022-12-14T15:36:06.980Z,12.77
2022-12-14T15:38:36.715Z,11.80
2022-12-14T15:41:24.001Z,12.73
2022-12-14T15:43:55.050Z,13.38
2022-12-14T15:46:27.829Z,13.52
2022-12-14T15:48:57.300Z,11.57
2022-12-14T15:51:31.424Z,12.48
2022-12-14T15:53:59.743Z,11.45
2022-12-14T15:56:41.839Z,12.95
2022-12-14T15:59:19.791Z,13.13
2022-12-14T16:01:54.398Z,12.68
2022-12-14T16:04:25.752Z,12.00
2022-12-14T16:07:08.704Z,12.70
2022-12-14T16:09:43.578Z,12.57
2022-12-14T16:12:21.327Z,14.95
2022-12-14T16:14:54.048Z,12.77
2022-12-14T16:17:26.502Z,13.80
2022-12-14T16:20:00.687Z,12.13
2022-12-14T16:22:32.025Z,12.63
2022-12-14T16:25:08.019Z,12.30
2022-12-14T16:27:39.311Z,12.50
2022-12-14T16:30:16.404Z,12.60
2022-12-14T16:32:45.070Z,12.55
2022-12-14T16:35:24.586Z,12.18
2022-12-14T16:37:55.668Z,12.15
2022-12-14T16:40:38.540Z,11.93
2022-12-14T16:43:07.242Z,12.85
2022-12-14T16:45:55.135Z,12.23
2022-12-14T16:48:23.213Z,12.05
2022-12-14T16:51:01.317Z,13.18
2022-12-14T16:53:34.974Z,13.43
2022-12-14T16:56:06.558Z,12.88
2022-12-14T16:58:34.895Z,12.98
2022-12-14T17:01:06.237Z,13.25
2022-12-14T17:03:36.399Z,12.65
2022-12-14T17:06:06.740Z,12.80
2022-12-14T17:08:34.453Z,13.98
2022-12-14T17:11:02.263Z,12.02
2022-12-14T17:13:29.597Z,12.13
2022-12-14T17:16:00.906Z,13.65
2022-12-14T17:18:32.380Z,12.15
2022-12-14T17:20:59.302Z,12.38
2022-12-14T17:23:26.666Z,11.85
2022-12-14T17:25:53.835Z,11.57
2022-12-14T17:28:32.640Z,12.45
2022-12-14T17:31:01.741Z,12.52
2022-12-14T17:33:31.327Z,12.60
2022-12-14T17:35:58.408Z,12.35
2022-12-14T17:38:26.224Z,12.02
2022-12-14T17:40:56.516Z,11.50
2022-12-14T17:43:27.130Z,11.95
2022-12-14T17:45:54.887Z,12.63
2022-12-14T17:48:21.772Z,13.05
2022-12-14T17:50:49.848Z,12.80
2022-12-14T17:53:21.273Z,12.85
2022-12-14T17:55:48.149Z,12.15
2022-12-14T17:58:15.028Z,13.63
2022-12-14T18:01:00.115Z,14.00
2022-12-14T18:03:29.822Z,13.77
2022-12-14T18:05:58.280Z,12.55
2022-12-14T18:08:26.577Z,13.35
2022-12-14T18:11:07.652Z,13.88
2022-12-14T18:13:38.796Z,13.60
2022-12-14T18:16:06.095Z,13.00
2022-12-14T18:18:32.960Z,13.70
2022-12-14T18:21:02.602Z,14.15
2022-12-14T18:23:30.944Z,14.00
2022-12-14T18:25:59.745Z,14.80
2022-12-14T18:28:26.901Z,15.30
2022-12-14T18:30:57.818Z,16.02
2022-12-14T18:33:27.852Z,15.63
2022-12-14T18:35:56.392Z,16.52
2022-12-14T18:38:24.132Z,16.17
2022-12-14T18:40:52.643Z,16.77
2022-12-14T18:43:23.513Z,16.92
2022-12-14T18:45:52.396Z,17.08
2022-12-14T18:48:19.567Z,17.67
2022-12-14T18:50:46.435Z,16.23
2022-12-14T18:53:18.903Z,16.45
2022-12-14T18:55:46.681Z,17.48
2022-12-14T18:58:28.030Z,16.75
2022-12-14T19:00:59.809Z,16.63
2022-12-14T19:03:29.967Z,17.00
2022-12-14T19:06:42.091Z,17.42
2022-12-14T19:08:56.968Z,16.90
2022-12-14T19:11:35.546Z,16.45
2022-12-14T19:14:02.373Z,16.77
2022-12-14T19:16:29.486Z,16.67
2022-12-14T19:18:56.700Z,17.17
2022-12-14T19:21:26.633Z,16.48
2022-12-14T19:23:53.559Z,16.15
2022-12-14T19:26:21.090Z,16.63
2022-12-14T19:28:47.864Z,14.73
2022-12-14T19:31:14.740Z,15.20
2022-12-14T19:33:41.681Z,15.00
2022-12-14T19:36:09.306Z,14.88
2022-12-14T19:38:36.959Z,14.85
2022-12-14T19:41:10.628Z,14.65
2022-12-14T19:43:37.490Z,13.38
2022-12-14T19:46:08.971Z,14.40
2022-12-14T19:48:35.967Z,14.52
2022-12-14T19:51:04.541Z,14.20
2022-12-14T19:53:33.252Z,14.30
2022-12-14T19:56:00.724Z,13.43
2022-12-14T19:58:28.457Z,13.75
2022-12-14T20:00:55.861Z,13.90
2022-12-14T20:03:24.227Z,13.32
2022-12-14T20:05:53.141Z,14.10
2022-12-14T20:08:20.476Z,13.20
2022-12-14T20:10:48.116Z,13.32
2022-12-14T20:13:15.548Z,13.82
2022-12-14T20:15:52.301Z,13.73
2022-12-14T20:18:21.142Z,13.65
2022-12-14T20:20:49.642Z,13.20
2022-12-14T20:23:18.483Z,15.50
2022-12-14T20:25:45.366Z,14.23
2022-12-14T20:28:12.327Z,14.32
2022-12-14T20:30:44.148Z,14.20
2022-12-14T20:33:11.234Z,14.23
2022-12-14T20:35:38.220Z,13.93
2022-12-14T20:38:05.068Z,14.48
2022-12-14T20:40:38.069Z,13.73
2022-12-14T20:43:05.676Z,13.90
2022-12-14T20:45:36.593Z,15.23
2022-12-14T20:48:05.279Z,14.32
2022-12-14T20:50:32.216Z,14.13
2022-12-14T20:52:58.962Z,15.13
2022-12-14T20:55:25.831Z,14.55
2022-12-14T20:57:52.672Z,14.95
2022-12-14T21:00:19.577Z,14.70
2022-12-14T21:02:46.570Z,14.05
2022-12-14T21:05:13.488Z,15.30
2022-12-14T21:07:40.315Z,15.07
2022-12-14T21:10:07.969Z,14.93
2022-12-14T21:12:35.041Z,15.07
2022-12-14T21:15:01.898Z,14.98
2022-12-14T21:17:30.777Z,13.98
2022-12-14T21:19:57.908Z,14.90
2022-12-14T21:22:26.867Z,14.18
2022-12-14T21:25:03.698Z,14.63
2022-12-14T21:27:33.172Z,14.38
2022-12-14T21:30:00.510Z,14.73
2022-12-14T21:32:28.184Z,13.93
2022-12-14T21:34:54.997Z,15.07
2022-12-14T21:37:22.192Z,14.13
2022-12-14T21:39:54.934Z,14.45
2022-12-14T21:42:24.178Z,14.98
2022-12-14T21:44:52.260Z,14.32
2022-12-14T21:47:27.613Z,14.95
2022-12-14T21:49:55.057Z,14.15
2022-12-14T21:52:24.706Z,13.98
2022-12-14T21:54:51.600Z,14.23
2022-12-14T21:57:40.823Z,14.02
2022-12-14T22:00:09.143Z,14.90
2022-12-14T22:02:36.132Z,14.02
2022-12-14T22:05:03.253Z,14.13
2022-12-14T22:07:33.725Z,14.80
2022-12-14T22:10:00.892Z,14.10
2022-12-14T22:12:27.880Z,13.65
2022-12-14T22:14:54.716Z,13.30
2022-12-14T22:17:21.484Z,12.50
2022-12-14T22:19:50.711Z,12.88
2022-12-14T22:22:17.803Z,12.95
2022-12-14T22:24:47.671Z,12.48
2022-12-14T22:27:14.903Z,13.05
2022-12-14T22:29:41.765Z,12.98
2022-12-14T22:32:10.779Z,16.40
2022-12-14T22:34:37.710Z,13.18
2022-12-14T22:37:04.458Z,12.48
2022-12-14T22:39:31.224Z,12.70
2022-12-14T22:41:57.979Z,12.20
2022-12-14T22:44:24.732Z,12.57
2022-12-14T22:46:51.462Z,12.75
2022-12-14T22:49:19.536Z,13.40
2022-12-14T22:51:46.744Z,12.48
2022-12-14T22:54:39.592Z,11.80
2022-12-14T22:57:18.817Z,12.70
2022-12-14T22:59:53.865Z,13.88
2022-12-14T23:02:20.979Z,12.82
2022-12-14T23:04:49.888Z,12.70
2022-12-14T23:07:17.601Z,11.60
2022-12-14T23:10:03.712Z,13.02
2022-12-14T23:12:49.104Z,13.27
2022-12-14T23:15:34.380Z,12.75
2022-12-14T23:18:21.238Z,13.63
2022-12-14T23:21:06.446Z,13.30
2022-12-14T23:23:51.713Z,13.00
2022-12-14T23:26:37.060Z,13.05
2022-12-14T23:29:22.644Z,13.57
2022-12-14T23:32:07.882Z,13.63
2022-12-14T23:34:53.522Z,12.05
2022-12-14T23:37:39.029Z,13.40
2022-12-14T23:40:25.188Z,13.93
2022-12-14T23:43:10.451Z,13.50
2022-12-14T23:45:55.707Z,14.55
2022-12-14T23:48:41.053Z,13.10
2022-12-14T23:51:26.415Z,12.88
2022-12-14T23:54:11.789Z,14.52
2022-12-14T23:56:56.982Z,13.82
2022-12-14T23:59:42.388Z,14.63
